sensor_id;sensor_type;location;lat;lon;timestamp;pressure;altitude;pressure_sealevel;temperature;humidity
53719;BME280;39616;48.872;9.390;2023-04-07T00:02:29;98386.03;;;5.54;100.00
53719;BME280;39616;48.872;9.390;2023-04-07T00:04:59;98383.88;;;5.51;100.00
53719;BME280;39616;48.872;9.390;2023-04-07T00:07:31;98370.94;;;5.48;100.00
53719;BME280;39616;48.872;9.390;2023-04-07T00:10:02;98372.81;;;5.48;100.00
53719;BME280;39616;48.872;9.390;2023-04-07T00:12:32;98369.59;;;5.46;100.00
53719;BME280;39616;48.872;9.390;2023-04-07T00:15:03;98368.53;;;5.47;100.00
53719;BME280;39616;48.872;9.390;2023-04-07T00:17:33;98373.34;;;5.45;100.00
53719;BME280;39616;48.872;9.390;2023-04-07T00:20:04;98370.66;;;5.45;100.00
53719;BME280;39616;48.872;9.390;2023-04-07T00:22:36;98356.69;;;5.43;100.00
53719;BME280;39616;48.872;9.390;2023-04-07T00:25:06;98356.91;;;5.41;100.00
53719;BME280;39616;48.872;9.390;2023-04-07T00:27:37;98358.81;;;5.41;100.00
53719;BME280;39616;48.872;9.390;2023-04-07T00:30:07;98358.00;;;5.40;100.00
53719;BME280;39616;48.872;9.390;2023-04-07T00:32:37;98352.34;;;5.37;100.00
53719;BME280;39616;48.872;9.390;2023-04-07T00:35:08;98341.84;;;5.35;100.00
53719;BME280;39616;48.872;9.390;2023-04-07T00:37:38;98345.34;;;5.30;100.00
53719;BME280;39616;48.872;9.390;2023-04-07T00:40:09;98343.97;;;5.28;100.00
53719;BME280;39616;48.872;9.390;2023-04-07T00:42:40;98342.06;;;5.23;100.00
53719;BME280;39616;48.872;9.390;2023-04-07T00:45:10;98331.31;;;5.23;100.00
53719;BME280;39616;48.872;9.390;2023-04-07T00:47:41;98334.53;;;5.25;100.00
53719;BME280;39616;48.872;9.390;2023-04-07T00:50:12;98335.34;;;5.26;100.00
53719;BME280;39616;48.872;9.390;2023-04-07T00:52:42;98327.28;;;5.26;100.00
53719;BME280;39616;48.872;9.390;2023-04-07T00:55:12;98323.00;;;5.30;100.00
53719;BME280;39616;48.872;9.390;2023-04-07T00:57:43;98317.09;;;5.33;100.00
53719;BME280;39616;48.872;9.390;2023-04-07T01:00:15;98320.28;;;5.30;100.00
53719;BME280;39616;48.872;9.390;2023-04-07T01:02:58;98311.44;;;5.29;100.00
53719;BME280;39616;48.872;9.390;2023-04-07T01:08:29;98311.19;;;5.31;100.00
53719;BME280;39616;48.872;9.390;2023-04-07T01:11:06;98304.22;;;5.35;100.00
53719;BME280;39616;48.872;9.390;2023-04-07T01:13:42;98299.34;;;5.32;100.00
53719;BME280;39616;48.872;9.390;2023-04-07T01:16:43;98305.00;;;5.30;100.00
53719;BME280;39616;48.872;9.390;2023-04-07T01:22:07;98293.41;;;5.30;100.00
53719;BME280;39616;48.872;9.390;2023-04-07T01:25:21;98292.59;;;5.29;100.00
53719;BME280;39616;48.872;9.390;2023-04-07T01:30:45;98280.25;;;5.28;100.00
53719;BME280;39616;48.872;9.390;2023-04-07T01:33:17;98281.31;;;5.27;100.00
53719;BME280;39616;48.872;9.390;2023-04-07T01:35:50;98283.16;;;5.22;100.00
53719;BME280;39616;48.872;9.390;2023-04-07T01:38:21;98280.75;;;5.25;100.00
53719;BME280;39616;48.872;9.390;2023-04-07T01:40:53;98276.19;;;5.26;100.00
53719;BME280;39616;48.872;9.390;2023-04-07T01:43:25;98273.53;;;5.31;100.00
53719;BME280;39616;48.872;9.390;2023-04-07T01:45:58;98274.88;;;5.33;100.00
53719;BME280;39616;48.872;9.390;2023-04-07T01:48:29;98269.78;;;5.32;100.00
53719;BME280;39616;48.872;9.390;2023-04-07T01:51:00;98255.78;;;5.30;100.00
53719;BME280;39616;48.872;9.390;2023-04-07T01:53:31;98261.97;;;5.30;100.00
53719;BME280;39616;48.872;9.390;2023-04-07T01:56:02;98261.97;;;5.30;100.00
53719;BME280;39616;48.872;9.390;2023-04-07T01:58:33;98261.16;;;5.30;100.00
53719;BME280;39616;48.872;9.390;2023-04-07T02:01:03;98258.47;;;5.30;100.00
53719;BME280;39616;48.872;9.390;2023-04-07T02:03:44;98262.25;;;5.34;100.00
53719;BME280;39616;48.872;9.390;2023-04-07T02:06:20;98262.78;;;5.31;100.00
53719;BME280;39616;48.872;9.390;2023-04-07T02:08:56;98264.91;;;5.29;100.00
53719;BME280;39616;48.872;9.390;2023-04-07T02:11:31;98266.25;;;5.26;100.00
53719;BME280;39616;48.872;9.390;2023-04-07T02:14:03;98252.78;;;5.21;100.00
53719;BME280;39616;48.872;9.390;2023-04-07T02:16:36;98251.97;;;5.21;100.00
53719;BME280;39616;48.872;9.390;2023-04-07T02:19:07;98256.81;;;5.19;100.00
53719;BME280;39616;48.872;9.390;2023-04-07T02:21:38;98251.69;;;5.12;100.00
53719;BME280;39616;48.872;9.390;2023-04-07T02:24:10;98252.25;;;5.19;100.00
53719;BME280;39616;48.872;9.390;2023-04-07T02:26:41;98254.66;;;5.16;100.00
53719;BME280;39616;48.872;9.390;2023-04-07T02:29:12;98249.53;;;5.09;100.00
53719;BME280;39616;48.872;9.390;2023-04-07T02:31:42;98243.88;;;5.05;100.00
53719;BME280;39616;48.872;9.390;2023-04-07T02:34:12;98238.72;;;5.04;100.00
53719;BME280;39616;48.872;9.390;2023-04-07T02:36:43;98239.00;;;5.07;100.00
53719;BME280;39616;48.872;9.390;2023-04-07T02:39:13;98235.81;;;5.05;100.00
53719;BME280;39616;48.872;9.390;2023-04-07T02:41:43;98229.06;;;5.08;100.00
53719;BME280;39616;48.872;9.390;2023-04-07T02:44:14;98226.13;;;5.04;100.00
53719;BME280;39616;48.872;9.390;2023-04-07T02:46:44;98227.22;;;5.08;100.00
53719;BME280;39616;48.872;9.390;2023-04-07T02:49:14;98222.13;;;5.17;100.00
53719;BME280;39616;48.872;9.390;2023-04-07T02:51:44;98215.38;;;5.15;100.00
53719;BME280;39616;48.872;9.390;2023-04-07T02:54:16;98219.16;;;5.14;100.00
53719;BME280;39616;48.872;9.390;2023-04-07T02:56:46;98219.97;;;5.14;100.00
53719;BME280;39616;48.872;9.390;2023-04-07T02:59:16;98218.34;;;5.13;100.00
53719;BME280;39616;48.872;9.390;2023-04-07T03:01:46;98218.88;;;5.15;100.00
53719;BME280;39616;48.872;9.390;2023-04-07T03:04:17;98221.34;;;5.22;100.00
53719;BME280;39616;48.872;9.390;2023-04-07T03:06:47;98216.47;;;5.19;100.00
53719;BME280;39616;48.872;9.390;2023-04-07T03:09:17;98217.31;;;5.19;100.00
53719;BME280;39616;48.872;9.390;2023-04-07T03:11:48;98211.38;;;5.17;100.00
53719;BME280;39616;48.872;9.390;2023-04-07T03:14:18;98211.09;;;5.14;100.00
53719;BME280;39616;48.872;9.390;2023-04-07T03:16:49;98209.22;;;5.14;100.00
53719;BME280;39616;48.872;9.390;2023-04-07T03:19:19;98209.72;;;5.11;100.00
53719;BME280;39616;48.872;9.390;2023-04-07T03:21:49;98200.34;;;5.08;100.00
53719;BME280;39616;48.872;9.390;2023-04-07T03:24:20;98193.06;;;5.09;100.00
53719;BME280;39616;48.872;9.390;2023-04-07T03:26:50;98197.09;;;5.06;100.00
53719;BME280;39616;48.872;9.390;2023-04-07T03:29:21;98192.81;;;5.11;100.00
53719;BME280;39616;48.872;9.390;2023-04-07T03:31:51;98195.50;;;5.11;100.00
53719;BME280;39616;48.872;9.390;2023-04-07T03:34:21;98188.50;;;5.15;100.00
53719;BME280;39616;48.872;9.390;2023-04-07T03:36:52;98183.69;;;5.17;100.00
53719;BME280;39616;48.872;9.390;2023-04-07T03:39:22;98186.09;;;5.18;100.00
53719;BME280;39616;48.872;9.390;2023-04-07T03:41:52;98182.59;;;5.18;100.00
53719;BME280;39616;48.872;9.390;2023-04-07T03:44:22;98183.66;;;5.12;100.00
53719;BME280;39616;48.872;9.390;2023-04-07T03:46:53;98184.50;;;5.12;100.00
53719;BME280;39616;48.872;9.390;2023-04-07T03:49:23;98184.78;;;5.16;100.00
53719;BME280;39616;48.872;9.390;2023-04-07T03:51:53;98186.09;;;5.13;100.00
53719;BME280;39616;48.872;9.390;2023-04-07T03:54:24;98187.44;;;5.11;100.00
53719;BME280;39616;48.872;9.390;2023-04-07T03:56:54;98188.50;;;5.09;100.00
53719;BME280;39616;48.872;9.390;2023-04-07T03:59:26;98193.59;;;5.11;100.00
53719;BME280;39616;48.872;9.390;2023-04-07T04:01:57;98194.13;;;5.08;100.00
53719;BME280;39616;48.872;9.390;2023-04-07T04:04:27;98191.19;;;5.09;100.00
53719;BME280;39616;48.872;9.390;2023-04-07T04:06:57;98186.34;;;5.06;100.00
53719;BME280;39616;48.872;9.390;2023-04-07T04:09:27;98182.84;;;5.06;100.00
53719;BME280;39616;48.872;9.390;2023-04-07T04:11:58;98181.25;;;5.05;100.00
53719;BME280;39616;48.872;9.390;2023-04-07T04:14:29;98186.34;;;5.06;100.00
53719;BME280;39616;48.872;9.390;2023-04-07T04:16:59;98181.50;;;5.03;100.00
53719;BME280;39616;48.872;9.390;2023-04-07T04:19:29;98171.53;;;5.04;100.00
53719;BME280;39616;48.872;9.390;2023-04-07T04:22:00;98167.00;;;5.04;100.00
53719;BME280;39616;48.872;9.390;2023-04-07T04:24:30;98168.59;;;5.05;100.00
53719;BME280;39616;48.872;9.390;2023-04-07T04:27:00;98171.53;;;5.04;100.00
53719;BME280;39616;48.872;9.390;2023-04-07T04:29:31;98171.53;;;4.99;100.00
53719;BME280;39616;48.872;9.390;2023-04-07T04:32:01;98168.56;;;4.95;100.00
53719;BME280;39616;48.872;9.390;2023-04-07T04:34:31;98165.34;;;4.98;100.00
53719;BME280;39616;48.872;9.390;2023-04-07T04:37:02;98171.81;;;4.97;100.00
53719;BME280;39616;48.872;9.390;2023-04-07T04:39:32;98171.25;;;4.95;100.00
53719;BME280;39616;48.872;9.390;2023-04-07T04:42:04;98178.22;;;4.91;100.00
53719;BME280;39616;48.872;9.390;2023-04-07T04:44:34;98170.97;;;4.92;100.00
53719;BME280;39616;48.872;9.390;2023-04-07T04:47:05;98170.44;;;4.95;100.00
53719;BME280;39616;48.872;9.390;2023-04-07T04:49:36;98171.25;;;4.95;100.00
53719;BME280;39616;48.872;9.390;2023-04-07T04:52:06;98171.78;;;4.92;100.00
53719;BME280;39616;48.872;9.390;2023-04-07T04:54:37;98169.09;;;4.92;100.00
53719;BME280;39616;48.872;9.390;2023-04-07T04:57:07;98173.66;;;4.92;100.00
53719;BME280;39616;48.872;9.390;2023-04-07T04:59:37;98173.38;;;4.93;100.00
53719;BME280;39616;48.872;9.390;2023-04-07T05:02:08;98176.91;;;4.94;100.00
53719;BME280;39616;48.872;9.390;2023-04-07T05:04:39;98168.28;;;4.92;100.00
53719;BME280;39616;48.872;9.390;2023-04-07T05:07:09;98176.34;;;4.92;100.00
53719;BME280;39616;48.872;9.390;2023-04-07T05:09:39;98177.72;;;4.94;100.00
53719;BME280;39616;48.872;9.390;2023-04-07T05:12:10;98182.53;;;4.92;100.00
53719;BME280;39616;48.872;9.390;2023-04-07T05:14:40;98177.44;;;4.91;100.00
53719;BME280;39616;48.872;9.390;2023-04-07T05:17:10;98171.78;;;4.92;100.00
53719;BME280;39616;48.872;9.390;2023-04-07T05:19:41;98166.69;;;4.91;100.00
53719;BME280;39616;48.872;9.390;2023-04-07T05:22:11;98176.06;;;4.93;100.00
53719;BME280;39616;48.872;9.390;2023-04-07T05:24:42;98170.44;;;4.95;100.00
53719;BME280;39616;48.872;9.390;2023-04-07T05:27:12;98173.13;;;4.95;100.00
53719;BME280;39616;48.872;9.390;2023-04-07T05:29:42;98179.03;;;4.97;100.00
53719;BME280;39616;48.872;9.390;2023-04-07T05:32:13;98170.16;;;4.96;100.00
53719;BME280;39616;48.872;9.390;2023-04-07T05:34:43;98173.13;;;4.95;100.00
53719;BME280;39616;48.872;9.390;2023-04-07T05:37:13;98172.84;;;4.91;100.00
53719;BME280;39616;48.872;9.390;2023-04-07T05:39:44;98176.06;;;4.93;100.00
53719;BME280;39616;48.872;9.390;2023-04-07T05:42:14;98178.00;;;4.98;100.00
53719;BME280;39616;48.872;9.390;2023-04-07T05:44:44;98171.81;;;5.02;100.00
53719;BME280;39616;48.872;9.390;2023-04-07T05:47:15;98179.06;;;5.02;100.00
53719;BME280;39616;48.872;9.390;2023-04-07T05:49:45;98179.06;;;5.02;100.00
53719;BME280;39616;48.872;9.390;2023-04-07T05:52:16;98173.97;;;5.05;100.00
53719;BME280;39616;48.872;9.390;2023-04-07T05:54:46;98170.75;;;5.03;100.00
53719;BME280;39616;48.872;9.390;2023-04-07T05:57:17;98178.28;;;5.06;100.00
53719;BME280;39616;48.872;9.390;2023-04-07T05:59:47;98175.59;;;5.06;100.00
53719;BME280;39616;48.872;9.390;2023-04-07T06:02:17;98182.06;;;5.11;100.00
53719;BME280;39616;48.872;9.390;2023-04-07T06:04:48;98177.22;;;5.13;100.00
53719;BME280;39616;48.872;9.390;2023-04-07T06:07:18;98174.81;;;5.16;100.00
53719;BME280;39616;48.872;9.390;2023-04-07T06:09:48;98179.69;;;5.19;100.00
53719;BME280;39616;48.872;9.390;2023-04-07T06:12:19;98183.16;;;5.20;100.00
53719;BME280;39616;48.872;9.390;2023-04-07T06:14:51;98179.41;;;5.21;100.00
53719;BME280;39616;48.872;9.390;2023-04-07T06:17:22;98171.34;;;5.21;100.00
53719;BME280;39616;48.872;9.390;2023-04-07T06:19:53;98181.81;;;5.22;100.00
53719;BME280;39616;48.872;9.390;2023-04-07T06:22:23;98185.34;;;5.28;100.00
53719;BME280;39616;48.872;9.390;2023-04-07T06:24:53;98188.31;;;5.31;100.00
53719;BME280;39616;48.872;9.390;2023-04-07T06:27:23;98184.56;;;5.38;100.00
53719;BME280;39616;48.872;9.390;2023-04-07T06:29:55;98184.56;;;5.43;100.00
53719;BME280;39616;48.872;9.390;2023-04-07T06:32:25;98186.44;;;5.47;100.00
53719;BME280;39616;48.872;9.390;2023-04-07T06:34:56;98178.66;;;5.51;100.00
53719;BME280;39616;48.872;9.390;2023-04-07T06:37:26;98180.00;;;5.53;100.00
53719;BME280;39616;48.872;9.390;2023-04-07T06:39:56;98178.91;;;5.60;100.00
53719;BME280;39616;48.872;9.390;2023-04-07T06:42:27;98182.16;;;5.67;100.00
53719;BME280;39616;48.872;9.390;2023-04-07T06:44:57;98174.63;;;5.69;100.00
53719;BME280;39616;48.872;9.390;2023-04-07T06:47:27;98185.41;;;5.69;100.00
53719;BME280;39616;48.872;9.390;2023-04-07T06:49:58;98178.16;;;5.79;100.00
53719;BME280;39616;48.872;9.390;2023-04-07T06:52:28;98180.03;;;5.84;100.00
53719;BME280;39616;48.872;9.390;2023-04-07T06:54:58;98170.34;;;5.83;100.00
53719;BME280;39616;48.872;9.390;2023-04-07T06:57:29;98173.03;;;5.88;100.00
53719;BME280;39616;48.872;9.390;2023-04-07T06:59:59;98176.28;;;5.95;100.00
53719;BME280;39616;48.872;9.390;2023-04-07T07:02:30;98168.75;;;5.97;100.00
53719;BME280;39616;48.872;9.390;2023-04-07T07:05:00;98174.38;;;6.11;100.00
53719;BME280;39616;48.872;9.390;2023-04-07T07:07:31;98169.28;;;6.20;100.00
53719;BME280;39616;48.872;9.390;2023-04-07T07:10:01;98169.53;;;6.28;100.00
53719;BME280;39616;48.872;9.390;2023-04-07T07:12:31;98171.13;;;6.35;100.00
53719;BME280;39616;48.872;9.390;2023-04-07T07:15:02;98168.13;;;6.46;100.00
53719;BME280;39616;48.872;9.390;2023-04-07T07:17:34;98175.38;;;6.61;100.00
53719;BME280;39616;48.872;9.390;2023-04-07T07:20:05;98172.97;;;6.60;100.00
53719;BME280;39616;48.872;9.390;2023-04-07T07:22:35;98168.63;;;6.59;100.00
53719;BME280;39616;48.872;9.390;2023-04-07T07:25:06;98172.97;;;6.54;100.00
53719;BME280;39616;48.872;9.390;2023-04-07T07:27:36;98175.63;;;6.65;100.00
53719;BME280;39616;48.872;9.390;2023-04-07T07:30:07;98172.38;;;6.73;100.00
53719;BME280;39616;48.872;9.390;2023-04-07T07:32:37;98174.75;;;6.85;100.00
53719;BME280;39616;48.872;9.390;2023-04-07T07:35:08;98166.38;;;6.96;100.00
53719;BME280;39616;48.872;9.390;2023-04-07T07:37:38;98168.44;;;7.15;100.00
53719;BME280;39616;48.872;9.390;2023-04-07T07:40:09;98164.00;;;7.34;100.00
53719;BME280;39616;48.872;9.390;2023-04-07T07:42:40;98158.56;;;7.44;99.53
53719;BME280;39616;48.872;9.390;2023-04-07T07:45:10;98164.78;;;7.79;97.75
53719;BME280;39616;48.872;9.390;2023-04-07T07:47:42;98167.97;;;8.15;95.68
53719;BME280;39616;48.872;9.390;2023-04-07T07:50:12;98154.28;;;8.36;93.60
53719;BME280;39616;48.872;9.390;2023-04-07T07:52:43;98165.13;;;8.60;89.75
53719;BME280;39616;48.872;9.390;2023-04-07T07:55:13;98172.03;;;8.71;88.53
53719;BME280;39616;48.872;9.390;2023-04-07T07:57:43;98174.91;;;8.80;88.76
53719;BME280;39616;48.872;9.390;2023-04-07T08:00:14;98177.78;;;8.88;88.96
53719;BME280;39616;48.872;9.390;2023-04-07T08:02:44;98176.13;;;8.92;88.11
53719;BME280;39616;48.872;9.390;2023-04-07T08:05:15;98178.81;;;8.92;85.87
53719;BME280;39616;48.872;9.390;2023-04-07T08:07:46;98175.84;;;9.13;86.52
53719;BME280;39616;48.872;9.390;2023-04-07T08:10:16;98176.69;;;9.32;85.44
53719;BME280;39616;48.872;9.390;2023-04-07T08:12:46;98170.53;;;9.46;84.32
53719;BME280;39616;48.872;9.390;2023-04-07T08:15:17;98166.88;;;9.74;84.74
53719;BME280;39616;48.872;9.390;2023-04-07T08:17:47;98176.25;;;9.44;81.89
53719;BME280;39616;48.872;9.390;2023-04-07T08:20:17;98171.66;;;9.44;83.67
53719;BME280;39616;48.872;9.390;2023-04-07T08:22:48;98170.91;;;9.77;81.44
53719;BME280;39616;48.872;9.390;2023-04-07T08:25:18;98169.00;;;9.77;79.40
53719;BME280;39616;48.872;9.390;2023-04-07T08:27:49;98164.97;;;10.26;78.37
53719;BME280;39616;48.872;9.390;2023-04-07T08:30:20;98175.13;;;10.34;76.41
53719;BME280;39616;48.872;9.390;2023-04-07T08:32:51;98179.38;;;10.82;74.62
53719;BME280;39616;48.872;9.390;2023-04-07T08:35:21;98173.38;;;10.99;72.35
53719;BME280;39616;48.872;9.390;2023-04-07T08:37:52;98176.34;;;11.25;71.68
53719;BME280;39616;48.872;9.390;2023-04-07T08:40:22;98176.34;;;11.39;69.86
53719;BME280;39616;48.872;9.390;2023-04-07T08:42:52;98177.41;;;11.37;68.25
53719;BME280;39616;48.872;9.390;2023-04-07T08:45:24;98185.00;;;11.13;69.39
53719;BME280;39616;48.872;9.390;2023-04-07T08:47:55;98181.47;;;11.26;69.35
53719;BME280;39616;48.872;9.390;2023-04-07T08:50:28;98186.22;;;11.21;68.82
53719;BME280;39616;48.872;9.390;2023-04-07T08:53:00;98192.06;;;10.73;69.46
53719;BME280;39616;48.872;9.390;2023-04-07T08:55:35;98197.63;;;10.49;69.28
53719;BME280;39616;48.872;9.390;2023-04-07T08:58:08;98197.41;;;10.45;68.40
53719;BME280;39616;48.872;9.390;2023-04-07T09:00:43;98199.22;;;10.36;70.24
53719;BME280;39616;48.872;9.390;2023-04-07T09:03:15;98197.72;;;10.44;70.55
53719;BME280;39616;48.872;9.390;2023-04-07T09:05:48;98203.38;;;10.47;71.17
53719;BME280;39616;48.872;9.390;2023-04-07T09:08:20;98203.78;;;10.22;70.45
53719;BME280;39616;48.872;9.390;2023-04-07T09:10:50;98209.22;;;10.68;71.03
53719;BME280;39616;48.872;9.390;2023-04-07T09:13:21;98206.22;;;11.11;71.54
53719;BME280;39616;48.872;9.390;2023-04-07T09:15:51;98207.53;;;10.72;69.89
53719;BME280;39616;48.872;9.390;2023-04-07T09:18:21;98213.28;;;10.19;70.72
53719;BME280;39616;48.872;9.390;2023-04-07T09:21:02;98206.19;;;10.42;72.50
53719;BME280;39616;48.872;9.390;2023-04-07T09:23:35;98207.59;;;10.67;70.57
53719;BME280;39616;48.872;9.390;2023-04-07T09:26:19;98203.56;;;10.51;70.37
53719;BME280;39616;48.872;9.390;2023-04-07T09:28:56;98209.41;;;10.58;71.25
53719;BME280;39616;48.872;9.390;2023-04-07T09:31:44;98207.72;;;10.29;70.18
53719;BME280;39616;48.872;9.390;2023-04-07T09:34:30;98201.97;;;10.63;69.87
53719;BME280;39616;48.872;9.390;2023-04-07T09:37:02;98211.53;;;10.88;68.72
53719;BME280;39616;48.872;9.390;2023-04-07T09:39:48;98210.31;;;10.67;69.40
53719;BME280;39616;48.872;9.390;2023-04-07T09:42:19;98205.19;;;10.93;68.02
53719;BME280;39616;48.872;9.390;2023-04-07T09:44:49;98216.38;;;10.92;68.53
53719;BME280;39616;48.872;9.390;2023-04-07T09:47:25;98212.88;;;10.45;68.96
53719;BME280;39616;48.872;9.390;2023-04-07T09:49:57;98215.06;;;10.29;70.34
53719;BME280;39616;48.872;9.390;2023-04-07T09:52:47;98215.72;;;10.53;70.18
53719;BME280;39616;48.872;9.390;2023-04-07T09:55:21;98215.59;;;10.45;70.13
53719;BME280;39616;48.872;9.390;2023-04-07T09:57:52;98219.81;;;10.18;70.00
53719;BME280;39616;48.872;9.390;2023-04-07T10:00:24;98216.09;;;10.14;70.47
53719;BME280;39616;48.872;9.390;2023-04-07T10:02:55;98214.94;;;10.67;69.92
53719;BME280;39616;48.872;9.390;2023-04-07T10:05:26;98215.72;;;10.67;70.00
53719;BME280;39616;48.872;9.390;2023-04-07T10:07:57;98213.44;;;10.60;70.73
53719;BME280;39616;48.872;9.390;2023-04-07T10:10:28;98214.66;;;10.82;69.95
53719;BME280;39616;48.872;9.390;2023-04-07T10:12:59;98217.88;;;10.98;69.03
53719;BME280;39616;48.872;9.390;2023-04-07T10:15:30;98217.13;;;11.47;68.86
53719;BME280;39616;48.872;9.390;2023-04-07T10:18:04;98214.34;;;11.25;67.88
53719;BME280;39616;48.872;9.390;2023-04-07T10:20:39;98211.03;;;11.28;67.61
53719;BME280;39616;48.872;9.390;2023-04-07T10:23:25;98214.75;;;11.18;68.24
53719;BME280;39616;48.872;9.390;2023-04-07T10:25:58;98213.34;;;10.93;67.60
53719;BME280;39616;48.872;9.390;2023-04-07T10:28:31;98214.47;;;10.92;67.45
53719;BME280;39616;48.872;9.390;2023-04-07T10:31:03;98202.69;;;11.38;66.90
53719;BME280;39616;48.872;9.390;2023-04-07T10:33:51;98201.50;;;11.67;66.79
53719;BME280;39616;48.872;9.390;2023-04-07T10:36:22;98200.31;;;11.95;65.55
53719;BME280;39616;48.872;9.390;2023-04-07T10:41:39;98199.16;;;12.10;64.38
53719;BME280;39616;48.872;9.390;2023-04-07T10:47:12;98192.47;;;12.16;63.97
53719;BME280;39616;48.872;9.390;2023-04-07T10:50:16;98190.25;;;12.18;63.47
53719;BME280;39616;48.872;9.390;2023-04-07T10:53:07;98191.22;;;12.22;63.87
53719;BME280;39616;48.872;9.390;2023-04-07T10:55:42;98198.88;;;12.43;63.51
53719;BME280;39616;48.872;9.390;2023-04-07T10:58:14;98198.53;;;12.13;63.98
53719;BME280;39616;48.872;9.390;2023-04-07T11:03:38;98193.59;;;12.15;64.33
53719;BME280;39616;48.872;9.390;2023-04-07T11:06:11;98197.91;;;12.16;62.96
53719;BME280;39616;48.872;9.390;2023-04-07T11:08:42;98190.97;;;12.32;64.69
53719;BME280;39616;48.872;9.390;2023-04-07T11:11:16;98190.22;;;12.41;63.85
53719;BME280;39616;48.872;9.390;2023-04-07T11:13:47;98194.50;;;12.33;63.61
53719;BME280;39616;48.872;9.390;2023-04-07T11:16:19;98189.19;;;12.59;62.19
53719;BME280;39616;48.872;9.390;2023-04-07T11:18:49;98188.94;;;12.38;63.22
53719;BME280;39616;48.872;9.390;2023-04-07T11:21:20;98190.97;;;12.32;65.03
53719;BME280;39616;48.872;9.390;2023-04-07T11:23:50;98182.09;;;12.18;62.51
53719;BME280;39616;48.872;9.390;2023-04-07T11:26:20;98183.25;;;12.26;61.28
53719;BME280;39616;48.872;9.390;2023-04-07T11:28:53;98180.25;;;12.05;62.51
53719;BME280;39616;48.872;9.390;2023-04-07T11:31:28;98180.78;;;12.69;62.99
53719;BME280;39616;48.872;9.390;2023-04-07T11:34:01;98178.66;;;12.97;60.21
53719;BME280;39616;48.872;9.390;2023-04-07T11:36:37;98177.34;;;13.52;59.91
53719;BME280;39616;48.872;9.390;2023-04-07T11:39:19;98181.53;;;13.75;56.85
53719;BME280;39616;48.872;9.390;2023-04-07T11:41:52;98176.88;;;13.93;57.57
53719;BME280;39616;48.872;9.390;2023-04-07T11:44:23;98184.41;;;13.70;59.21
53719;BME280;39616;48.872;9.390;2023-04-07T11:46:58;98183.47;;;13.92;56.81
53719;BME280;39616;48.872;9.390;2023-04-07T11:49:29;98178.94;;;14.05;55.30
53719;BME280;39616;48.872;9.390;2023-04-07T11:52:04;98177.50;;;13.90;55.54
53719;BME280;39616;48.872;9.390;2023-04-07T11:54:45;98188.59;;;13.59;55.80
53719;BME280;39616;48.872;9.390;2023-04-07T11:57:28;98190.44;;;13.33;55.42
53719;BME280;39616;48.872;9.390;2023-04-07T12:00:09;98184.00;;;13.20;56.83
53719;BME280;39616;48.872;9.390;2023-04-07T12:02:40;98185.22;;;12.96;58.48
53719;BME280;39616;48.872;9.390;2023-04-07T12:05:11;98187.94;;;12.96;58.55
53719;BME280;39616;48.872;9.390;2023-04-07T12:07:52;98191.88;;;12.81;58.96
53719;BME280;39616;48.872;9.390;2023-04-07T12:10:23;98182.59;;;12.82;58.16
53719;BME280;39616;48.872;9.390;2023-04-07T12:12:56;98186.28;;;12.87;58.49
53719;BME280;39616;48.872;9.390;2023-04-07T12:15:27;98182.03;;;12.63;58.28
53719;BME280;39616;48.872;9.390;2023-04-07T12:17:57;98185.00;;;12.84;58.92
53719;BME280;39616;48.872;9.390;2023-04-07T12:20:28;98193.28;;;12.70;57.57
53719;BME280;39616;48.872;9.390;2023-04-07T12:22:58;98191.63;;;12.61;58.32
53719;BME280;39616;48.872;9.390;2023-04-07T12:25:29;98195.16;;;12.70;59.08
53719;BME280;39616;48.872;9.390;2023-04-07T12:27:59;98198.28;;;12.23;58.86
53719;BME280;39616;48.872;9.390;2023-04-07T12:30:30;98200.13;;;12.37;59.48
53719;BME280;39616;48.872;9.390;2023-04-07T12:33:00;98203.13;;;12.26;60.11
53719;BME280;39616;48.872;9.390;2023-04-07T12:35:32;98203.09;;;12.04;61.38
53719;BME280;39616;48.872;9.390;2023-04-07T12:38:02;98206.50;;;11.87;61.95
53719;BME280;39616;48.872;9.390;2023-04-07T12:40:34;98210.38;;;11.45;62.77
53719;BME280;39616;48.872;9.390;2023-04-07T12:43:05;98211.22;;;11.45;63.39
53719;BME280;39616;48.872;9.390;2023-04-07T12:45:36;98211.63;;;11.39;64.19
53719;BME280;39616;48.872;9.390;2023-04-07T12:48:06;98215.84;;;11.31;65.02
53719;BME280;39616;48.872;9.390;2023-04-07T12:50:36;98211.84;;;11.15;65.12
53719;BME280;39616;48.872;9.390;2023-04-07T12:53:07;98218.38;;;11.00;68.43
53719;BME280;39616;48.872;9.390;2023-04-07T12:55:38;98219.28;;;10.81;71.81
53719;BME280;39616;48.872;9.390;2023-04-07T12:58:08;98216.03;;;10.66;73.17
53719;BME280;39616;48.872;9.390;2023-04-07T13:00:39;98215.53;;;10.63;74.34
53719;BME280;39616;48.872;9.390;2023-04-07T13:03:10;98225.13;;;10.23;81.02
53719;BME280;39616;48.872;9.390;2023-04-07T13:05:41;98215.81;;;9.97;92.23
53719;BME280;39616;48.872;9.390;2023-04-07T13:08:11;98214.81;;;9.92;95.22
53719;BME280;39616;48.872;9.390;2023-04-07T13:10:41;98224.91;;;9.87;97.35
53719;BME280;39616;48.872;9.390;2023-04-07T13:13:11;98220.81;;;9.89;94.62
53719;BME280;39616;48.872;9.390;2023-04-07T13:15:42;98221.69;;;9.85;89.44
53719;BME280;39616;48.872;9.390;2023-04-07T13:18:12;98221.91;;;9.88;95.01
53719;BME280;39616;48.872;9.390;2023-04-07T13:20:42;98220.31;;;9.87;90.99
53719;BME280;39616;48.872;9.390;2023-04-07T13:23:13;98221.03;;;9.93;96.49
53719;BME280;39616;48.872;9.390;2023-04-07T13:25:43;98209.00;;;9.99;94.34
53719;BME280;39616;48.872;9.390;2023-04-07T13:28:14;98211.97;;;9.84;86.09
53719;BME280;39616;48.872;9.390;2023-04-07T13:30:47;98215.13;;;10.24;87.39
53719;BME280;39616;48.872;9.390;2023-04-07T13:33:17;98208.47;;;10.49;86.03
53719;BME280;39616;48.872;9.390;2023-04-07T13:35:48;98215.13;;;10.70;80.46
53719;BME280;39616;48.872;9.390;2023-04-07T13:38:18;98202.09;;;11.00;83.48
53719;BME280;39616;48.872;9.390;2023-04-07T13:40:48;98207.63;;;11.08;79.69
53719;BME280;39616;48.872;9.390;2023-04-07T13:43:19;98203.56;;;11.33;84.47